Time,TemperatureF,DewpointF,PressureIn,WindDirection,WindDirectionDegrees,WindSpeedMPH,WindSpeedGustMPH,Humidity,HourlyPrecipIn,Conditions,Clouds,dailyrainin,SoftwareType,DateUTC
2013-04-17 00:01:00,39.9,36.6,30.46,WNW,294,0.0,0.0,88,0.00,,,0.07,Wunderground v.1.15,2013-04-17 07:01:00,
2013-04-17 00:11:00,39.6,36.6,30.46,WNW,294,0.0,0.0,89,0.00,,,0.00,Wunderground v.1.15,2013-04-17 07:11:00,
2013-04-17 00:16:00,39.5,36.8,30.46,WNW,294,0.0,0.0,90,0.00,,,0.00,Wunderground v.1.15,2013-04-17 07:16:00,
2013-04-17 00:21:00,39.3,36.6,30.46,WNW,294,0.0,0.0,90,0.00,,,0.00,Wunderground v.1.15,2013-04-17 07:21:00,
2013-04-17 00:26:00,39.2,36.2,30.46,WNW,294,0.0,0.0,89,0.00,,,0.00,Wunderground v.1.15,2013-04-17 07:26:00,
2013-04-17 00:31:00,38.9,36.2,30.46,WNW,294,0.0,0.0,90,0.00,,,0.00,Wunderground v.1.15,2013-04-17 07:31:00,
2013-04-17 00:36:00,38.8,35.8,30.46,WNW,294,0.0,0.0,89,0.00,,,0.00,Wunderground v.1.15,2013-04-17 07:36:00,
2013-04-17 00:46:00,38.6,35.6,30.46,WNW,294,0.0,0.0,89,0.00,,,0.00,Wunderground v.1.15,2013-04-17 07:46:00,
2013-04-17 00:55:00,38.5,35.8,30.47,WNW,294,0.0,0.0,90,0.00,,,0.00,Wunderground v.1.15,2013-04-17 07:55:00,
2013-04-17 01:11:00,38.0,35.6,30.47,WNW,294,0.0,0.0,91,0.00,,,0.00,Wunderground v.1.15,2013-04-17 08:11:00,
2013-04-17 01:20:00,37.9,35.5,30.47,WNW,294,0.0,0.0,91,0.00,,,0.00,Wunderground v.1.15,2013-04-17 08:20:00,
2013-04-17 01:30:00,37.8,35.4,30.47,WNW,294,0.0,0.0,91,0.00,,,0.00,Wunderground v.1.15,2013-04-17 08:30:00,
2013-04-17 01:35:00,37.6,35.2,30.47,WNW,294,0.0,0.0,91,0.00,,,0.00,Wunderground v.1.15,2013-04-17 08:35:00,
2013-04-17 01:46:00,37.5,35.1,30.47,WNW,294,0.0,0.0,91,0.00,,,0.00,Wunderground v.1.15,2013-04-17 08:46:00,
2013-04-17 01:51:00,37.5,35.1,30.48,WNW,294,0.0,0.0,91,0.00,,,0.00,Wunderground v.1.15,2013-04-17 08:51:00,
2013-04-17 01:56:00,37.3,35.2,30.48,WNW,294,0.0,0.0,92,0.00,,,0.00,Wunderground v.1.15,2013-04-17 08:56:00,
2013-04-17 02:10:00,37.2,35.1,30.48,WNW,294,0.0,0.0,92,0.00,,,0.00,Wunderground v.1.15,2013-04-17 09:10:00,
2013-04-17 02:20:00,37.2,35.1,30.48,WNW,294,0.0,0.0,92,0.00,,,0.00,Wunderground v.1.15,2013-04-17 09:20:00,
2013-04-17 02:25:00,37.2,35.4,30.48,WNW,294,0.0,0.0,93,0.00,,,0.00,Wunderground v.1.15,2013-04-17 09:25:00,
2013-04-17 02:30:00,37.2,35.4,30.48,WNW,294,0.0,0.0,93,0.00,,,0.00,Wunderground v.1.15,2013-04-17 09:30:00,
2013-04-17 02:36:00,37.0,35.2,30.48,WNW,294,0.0,0.0,93,0.00,,,0.00,Wunderground v.1.15,2013-04-17 09:36:00,
2013-04-17 02:46:00,36.9,35.1,30.48,WNW,294,0.0,0.0,93,0.00,,,0.00,Wunderground v.1.15,2013-04-17 09:46:00,
2013-04-17 02:51:00,36.9,35.1,30.48,WNW,294,0.0,0.0,93,0.00,,,0.00,Wunderground v.1.15,2013-04-17 09:51:00,
2013-04-17 03:00:00,36.6,34.8,30.48,WNW,294,0.0,0.0,93,0.00,,,0.00,Wunderground v.1.15,2013-04-17 10:00:00,
2013-04-17 03:11:00,36.5,34.7,30.48,WNW,294,0.0,0.0,93,0.00,,,0.00,Wunderground v.1.15,2013-04-17 10:11:00,
2013-04-17 03:21:00,36.3,34.5,30.48,WNW,294,0.0,0.0,93,0.00,,,0.00,Wunderground v.1.15,2013-04-17 10:21:00,
2013-04-17 03:30:00,36.2,34.4,30.48,WNW,294,0.0,0.0,93,0.00,,,0.00,Wunderground v.1.15,2013-04-17 10:30:00,
2013-04-17 03:40:00,36.0,34.2,30.48,WNW,294,0.0,0.0,93,0.00,,,0.00,Wunderground v.1.15,2013-04-17 10:40:00,
2013-04-17 03:46:00,35.9,34.1,30.48,WNW,294,0.0,0.0,93,0.00,,,0.00,Wunderground v.1.15,2013-04-17 10:46:00,
2013-04-17 03:55:00,35.8,34.0,30.48,WNW,294,0.0,0.0,93,0.00,,,0.00,Wunderground v.1.15,2013-04-17 10:55:00,
2013-04-17 04:01:00,35.8,34.0,30.48,WNW,294,0.0,0.0,93,0.00,,,0.00,Wunderground v.1.15,2013-04-17 11:01:00,
2013-04-17 04:10:00,35.6,33.8,30.48,WNW,294,0.0,0.0,93,0.00,,,0.00,Wunderground v.1.15,2013-04-17 11:10:00,
2013-04-17 04:20:00,35.5,33.7,30.48,WNW,294,0.0,0.0,93,0.00,,,0.00,Wunderground v.1.15,2013-04-17 11:20:00,
2013-04-17 04:31:00,35.5,33.9,30.48,WNW,294,0.0,0.0,94,0.00,,,0.00,Wunderground v.1.15,2013-04-17 11:31:00,
2013-04-17 04:40:00,35.5,33.9,30.48,WNW,294,0.0,0.0,94,0.00,,,0.00,Wunderground v.1.15,2013-04-17 11:40:00,
2013-04-17 04:46:00,35.5,33.9,30.48,WNW,294,0.0,0.0,94,0.00,,,0.00,Wunderground v.1.15,2013-04-17 11:46:00,
2013-04-17 04:55:00,35.5,33.9,30.48,WNW,294,0.0,0.0,94,0.00,,,0.00,Wunderground v.1.15,2013-04-17 11:55:00,
2013-04-17 05:11:00,35.5,33.9,30.48,WNW,294,0.0,0.0,94,0.00,,,0.00,Wunderground v.1.15,2013-04-17 12:11:00,
2013-04-17 05:20:00,35.5,34.2,30.49,WNW,294,0.0,0.0,95,0.00,,,0.00,Wunderground v.1.15,2013-04-17 12:20:00,
2013-04-17 05:31:00,35.5,34.2,30.49,WNW,294,0.0,0.0,95,0.00,,,0.00,Wunderground v.1.15,2013-04-17 12:31:00,
2013-04-17 05:40:00,35.3,34.0,30.49,WNW,294,0.0,0.0,95,0.00,,,0.00,Wunderground v.1.15,2013-04-17 12:40:00,
2013-04-17 05:45:00,35.3,34.0,30.49,WNW,294,0.0,0.0,95,0.00,,,0.00,Wunderground v.1.15,2013-04-17 12:45:00,
2013-04-17 05:51:00,35.2,33.6,30.49,WNW,294,0.0,0.0,94,0.00,,,0.00,Wunderground v.1.15,2013-04-17 12:51:00,
2013-04-17 06:00:00,35.0,33.4,30.49,WNW,294,0.0,0.0,94,0.00,,,0.00,Wunderground v.1.15,2013-04-17 13:00:00,
2013-04-17 06:10:00,34.9,33.3,30.50,WNW,294,0.0,0.0,94,0.00,,,0.00,Wunderground v.1.15,2013-04-17 13:10:00,
2013-04-17 06:21:00,34.7,33.2,30.50,WNW,294,0.0,0.0,94,0.00,,,0.00,Wunderground v.1.15,2013-04-17 13:21:00,
2013-04-17 06:30:00,34.7,33.4,30.50,WNW,294,0.0,0.0,95,0.00,,,0.00,Wunderground v.1.15,2013-04-17 13:30:00,
2013-04-17 06:41:00,34.7,33.4,30.50,WNW,294,0.0,0.0,95,0.00,,,0.00,Wunderground v.1.15,2013-04-17 13:41:00,
2013-04-17 06:50:00,34.9,33.6,30.51,WNW,294,0.0,0.0,95,0.00,,,0.00,Wunderground v.1.15,2013-04-17 13:50:00,
2013-04-17 07:01:00,35.0,33.7,30.51,WNW,294,0.0,0.0,95,0.00,,,0.00,Wunderground v.1.15,2013-04-17 14:01:00,
2013-04-17 07:10:00,35.5,34.5,30.51,WNW,294,0.0,0.0,96,0.00,,,0.00,Wunderground v.1.15,2013-04-17 14:10:00,
2013-04-17 07:20:00,35.9,34.9,30.51,WNW,294,0.0,0.0,96,0.00,,,0.00,Wunderground v.1.15,2013-04-17 14:20:00,
2013-04-17 07:26:00,36.2,35.4,30.51,WNW,294,0.0,0.0,97,0.00,,,0.00,Wunderground v.1.15,2013-04-17 14:26:00,
2013-04-17 07:35:00,37.0,36.2,30.51,SE,136,0.0,0.0,97,0.00,,,0.00,Wunderground v.1.15,2013-04-17 14:35:00,
2013-04-17 07:41:00,37.6,36.8,30.51,SE,136,0.0,0.0,97,0.00,,,0.00,Wunderground v.1.15,2013-04-17 14:41:00,
2013-04-17 07:50:00,38.3,37.5,30.51,SE,136,0.0,0.0,97,0.00,,,0.00,Wunderground v.1.15,2013-04-17 14:50:00,
2013-04-17 08:00:00,39.3,38.0,30.51,SE,136,0.0,0.0,95,0.00,,,0.00,Wunderground v.1.15,2013-04-17 15:00:00,
2013-04-17 08:11:00,40.1,37.7,30.51,SE,136,0.0,0.0,91,0.00,,,0.00,Wunderground v.1.15,2013-04-17 15:11:00,
2013-04-17 08:20:00,40.8,37.8,30.51,SE,136,0.0,0.0,89,0.00,,,0.00,Wunderground v.1.15,2013-04-17 15:20:00,
2013-04-17 08:30:00,41.8,37.9,30.51,SE,136,0.0,0.0,86,0.00,,,0.00,Wunderground v.1.15,2013-04-17 15:30:00,
2013-04-17 08:36:00,42.2,39.2,30.52,SE,134,0.0,0.0,89,0.00,,,0.00,Wunderground v.1.15,2013-04-17 15:36:00,
2013-04-17 08:45:00,43.1,38.9,30.52,SE,136,0.0,0.0,85,0.00,,,0.00,Wunderground v.1.15,2013-04-17 15:45:00,
2013-04-17 08:56:00,43.9,39.7,30.52,SE,134,0.0,0.0,85,0.00,,,0.00,Wunderground v.1.15,2013-04-17 15:56:00,
2013-04-17 09:01:00,44.5,38.4,30.52,SE,130,1.0,1.0,79,0.00,,,0.00,Wunderground v.1.15,2013-04-17 16:01:00,
2013-04-17 09:11:00,45.4,38.9,30.52,SE,138,1.0,1.0,78,0.00,,,0.00,Wunderground v.1.15,2013-04-17 16:11:00,
2013-04-17 09:16:00,45.7,38.6,30.52,NNW,347,1.0,1.0,76,0.00,,,0.00,Wunderground v.1.15,2013-04-17 16:16:00,
2013-04-17 09:25:00,46.0,38.2,30.52,SE,136,1.0,1.0,74,0.00,,,0.00,Wunderground v.1.15,2013-04-17 16:25:00,
2013-04-17 09:31:00,46.4,38.2,30.52,SE,145,0.0,0.0,73,0.00,,,0.00,Wunderground v.1.15,2013-04-17 16:31:00,
2013-04-17 09:36:00,46.8,38.2,30.52,SE,128,1.0,1.0,72,0.00,,,0.00,Wunderground v.1.15,2013-04-17 16:36:00,
2013-04-17 09:46:00,47.9,40.4,30.52,ESE,123,1.0,4.0,75,0.00,,,0.00,Wunderground v.1.15,2013-04-17 16:46:00,
2013-04-17 09:55:00,48.8,40.5,30.52,SE,140,1.0,2.0,73,0.00,,,0.00,Wunderground v.1.15,2013-04-17 16:55:00,
2013-04-17 10:11:00,50.2,40.8,30.51,SE,143,1.0,1.0,70,0.00,,,0.00,Wunderground v.1.15,2013-04-17 17:11:00,
2013-04-17 10:21:00,51.0,41.2,30.51,SE,134,1.0,1.0,69,0.00,,,0.00,Wunderground v.1.15,2013-04-17 17:21:00,
2013-04-17 10:26:00,51.3,42.6,30.51,ESE,110,1.0,1.0,72,0.00,,,0.00,Wunderground v.1.15,2013-04-17 17:26:00,
2013-04-17 10:31:00,51.7,41.5,30.51,South,184,1.0,1.0,68,0.00,,,0.00,Wunderground v.1.15,2013-04-17 17:31:00,
2013-04-17 10:40:00,52.6,41.6,30.51,East,80,1.0,2.0,66,0.00,,,0.00,Wunderground v.1.15,2013-04-17 17:40:00,
2013-04-17 10:45:00,53.1,42.0,30.51,SE,144,1.0,2.0,66,0.00,,,0.00,Wunderground v.1.15,2013-04-17 17:45:00,
2013-04-17 10:50:00,53.2,41.3,30.51,SSE,154,2.0,2.0,64,0.00,,,0.00,Wunderground v.1.15,2013-04-17 17:50:00,
2013-04-17 10:55:00,53.3,41.8,30.51,SSE,165,1.0,2.0,65,0.00,,,0.00,Wunderground v.1.15,2013-04-17 17:55:00,
2013-04-17 11:00:00,53.9,42.8,30.51,NNW,342,1.0,1.0,66,0.00,,,0.00,Wunderground v.1.15,2013-04-17 18:00:00,
2013-04-17 11:11:00,54.5,41.7,30.50,South,171,1.0,1.0,62,0.00,,,0.00,Wunderground v.1.15,2013-04-17 18:11:00,
2013-04-17 11:16:00,55.0,42.2,30.50,SSW,196,1.0,1.0,62,0.00,,,0.00,Wunderground v.1.15,2013-04-17 18:16:00,
2013-04-17 11:21:00,55.0,40.9,30.50,South,186,1.0,1.0,59,0.00,,,0.00,Wunderground v.1.15,2013-04-17 18:21:00,
2013-04-17 11:26:00,55.0,40.0,30.50,SW,226,1.0,1.0,57,0.00,,,0.00,Wunderground v.1.15,2013-04-17 18:26:00,
2013-04-17 11:35:00,55.7,40.7,30.50,SSW,203,1.0,4.0,57,0.00,,,0.00,Wunderground v.1.15,2013-04-17 18:35:00,
2013-04-17 11:45:00,55.6,41.9,30.50,SSW,205,3.0,6.0,60,0.00,,,0.00,Wunderground v.1.15,2013-04-17 18:45:00,
2013-04-17 11:50:00,55.7,39.3,30.50,South,191,3.0,3.0,54,0.00,,,0.00,Wunderground v.1.15,2013-04-17 18:50:00,
2013-04-17 11:55:00,56.0,40.5,30.50,SSW,192,2.0,3.0,56,0.00,,,0.00,Wunderground v.1.15,2013-04-17 18:55:00,
2013-04-17 12:00:00,56.6,41.1,30.50,SE,145,1.0,2.0,56,0.00,,,0.00,Wunderground v.1.15,2013-04-17 19:00:00,
2013-04-17 12:11:00,57.6,40.6,30.50,ESE,116,1.0,1.0,53,0.00,,,0.00,Wunderground v.1.15,2013-04-17 19:11:00,
2013-04-17 12:20:00,58.0,40.5,30.50,SE,134,2.0,2.0,52,0.00,,,0.00,Wunderground v.1.15,2013-04-17 19:20:00,
2013-04-17 12:30:00,57.2,38.7,30.50,South,178,2.0,2.0,50,0.00,,,0.00,Wunderground v.1.15,2013-04-17 19:30:00,
2013-04-17 12:36:00,57.6,41.5,30.50,East,100,1.0,2.0,55,0.00,,,0.00,Wunderground v.1.15,2013-04-17 19:36:00,
2013-04-17 12:45:00,58.0,37.9,30.50,SSW,205,2.0,2.0,47,0.00,,,0.00,Wunderground v.1.15,2013-04-17 19:45:00,
2013-04-17 12:51:00,58.0,38.9,30.49,SSW,195,1.0,1.0,49,0.00,,,0.00,Wunderground v.1.15,2013-04-17 19:51:00,
2013-04-17 13:00:00,58.4,37.7,30.49,SE,138,2.0,2.0,46,0.00,,,0.00,Wunderground v.1.15,2013-04-17 20:00:00,
2013-04-17 13:11:00,58.6,37.3,30.49,West,270,2.0,2.0,45,0.00,,,0.00,Wunderground v.1.15,2013-04-17 20:11:00,
2013-04-17 13:16:00,58.6,39.0,30.49,SE,144,1.0,2.0,48,0.00,,,0.00,Wunderground v.1.15,2013-04-17 20:16:00,
2013-04-17 13:21:00,58.9,38.7,30.49,SSW,199,0.0,6.0,47,0.00,,,0.00,Wunderground v.1.15,2013-04-17 20:21:00,
2013-04-17 13:26:00,58.7,39.6,30.49,East,79,1.0,6.0,49,0.00,,,0.00,Wunderground v.1.15,2013-04-17 20:26:00,
2013-04-17 13:36:00,59.3,39.6,30.48,SE,130,1.0,1.0,48,0.00,,,0.00,Wunderground v.1.15,2013-04-17 20:36:00,
2013-04-17 13:46:00,59.2,40.6,30.48,SSW,198,1.0,4.0,50,0.00,,,0.00,Wunderground v.1.15,2013-04-17 20:46:00,
2013-04-17 13:55:00,59.2,38.4,30.48,ESE,121,1.0,1.0,46,0.00,,,0.00,Wunderground v.1.15,2013-04-17 20:55:00,
2013-04-17 14:11:00,59.2,36.7,30.48,WSW,248,3.0,3.0,43,0.00,,,0.00,Wunderground v.1.15,2013-04-17 21:11:00,
2013-04-17 14:16:00,59.3,36.8,30.48,SE,133,3.0,7.0,43,0.00,,,0.00,Wunderground v.1.15,2013-04-17 21:16:00,
2013-04-17 14:21:00,59.3,39.1,30.47,SSE,151,2.0,2.0,47,0.00,,,0.00,Wunderground v.1.15,2013-04-17 21:21:00,
2013-04-17 14:26:00,59.2,34.2,30.47,SW,227,4.0,7.0,39,0.00,,,0.00,Wunderground v.1.15,2013-04-17 21:26:00,
2013-04-17 14:35:00,58.6,33.7,30.47,SSW,196,4.0,4.0,39,0.00,,,0.00,Wunderground v.1.15,2013-04-17 21:35:00,
2013-04-17 14:41:00,59.0,34.1,30.47,ESE,117,3.0,7.0,39,0.00,,,0.00,Wunderground v.1.15,2013-04-17 21:41:00,
2013-04-17 14:46:00,59.0,34.7,30.47,ESE,123,3.0,7.0,40,0.00,,,0.00,Wunderground v.1.15,2013-04-17 21:46:00,
2013-04-17 14:55:00,59.8,34.8,30.47,SW,220,2.0,6.0,39,0.00,,,0.00,Wunderground v.1.15,2013-04-17 21:55:00,
2013-04-17 15:11:00,60.1,37.5,30.47,NNE,30,2.0,2.0,43,0.00,,,0.00,Wunderground v.1.15,2013-04-17 22:11:00,
2013-04-17 15:16:00,60.7,36.8,30.47,South,188,2.0,2.0,41,0.00,,,0.00,Wunderground v.1.15,2013-04-17 22:16:00,
2013-04-17 15:21:00,61.0,35.2,30.47,SSW,203,2.0,2.0,38,0.00,,,0.00,Wunderground v.1.15,2013-04-17 22:21:00,
2013-04-17 15:30:00,60.4,33.3,30.47,SE,126,3.0,3.0,36,0.00,,,0.00,Wunderground v.1.15,2013-04-17 22:30:00,
2013-04-17 15:35:00,59.9,31.4,30.46,SSW,205,3.0,4.0,34,0.00,,,0.00,Wunderground v.1.15,2013-04-17 22:35:00,
2013-04-17 15:45:00,59.9,34.9,30.46,SSW,193,2.0,4.0,39,0.00,,,0.00,Wunderground v.1.15,2013-04-17 22:45:00,
2013-04-17 15:50:00,60.1,35.0,30.46,SSW,212,3.0,3.0,39,0.00,,,0.00,Wunderground v.1.15,2013-04-17 22:50:00,
2013-04-17 15:55:00,59.9,35.5,30.46,SE,128,3.0,6.0,40,0.00,,,0.00,Wunderground v.1.15,2013-04-17 22:55:00,
2013-04-17 16:00:00,59.3,35.6,30.46,SSW,210,3.0,4.0,41,0.00,,,0.00,Wunderground v.1.15,2013-04-17 23:00:00,
2013-04-17 16:11:00,58.9,34.0,30.46,SE,140,2.0,2.0,39,0.00,,,0.00,Wunderground v.1.15,2013-04-17 23:11:00,
2013-04-17 16:16:00,58.9,36.4,30.46,SSW,209,2.0,2.0,43,0.00,,,0.00,Wunderground v.1.15,2013-04-17 23:16:00,
2013-04-17 16:25:00,58.9,35.2,30.46,South,186,2.0,2.0,41,0.00,,,0.00,Wunderground v.1.15,2013-04-17 23:25:00,
2013-04-17 16:30:00,58.9,34.0,30.46,SSW,205,2.0,4.0,39,0.00,,,0.00,Wunderground v.1.15,2013-04-17 23:30:00,
2013-04-17 16:35:00,58.9,35.2,30.46,NW,311,1.0,4.0,41,0.00,,,0.00,Wunderground v.1.15,2013-04-17 23:35:00,
2013-04-17 16:41:00,59.0,34.1,30.46,SSW,206,1.0,1.0,39,0.00,,,0.00,Wunderground v.1.15,2013-04-17 23:41:00,
2013-04-17 16:51:00,58.9,34.6,30.46,SSE,147,1.0,2.0,40,0.00,,,0.00,Wunderground v.1.15,2013-04-17 23:51:00,
2013-04-17 17:01:00,58.6,33.7,30.46,SE,137,1.0,1.0,39,0.00,,,0.00,Wunderground v.1.15,2013-04-18 00:01:00,
2013-04-17 17:10:00,58.4,34.8,30.45,SSE,158,1.0,1.0,41,0.00,,,0.00,Wunderground v.1.15,2013-04-18 00:10:00,
2013-04-17 17:15:00,58.3,35.9,30.45,South,181,1.0,1.0,43,0.00,,,0.00,Wunderground v.1.15,2013-04-18 00:15:00,
2013-04-17 17:20:00,58.0,35.6,30.45,SSW,200,1.0,2.0,43,0.00,,,0.00,Wunderground v.1.15,2013-04-18 00:20:00,
2013-04-17 17:31:00,57.6,38.6,30.45,SE,133,1.0,1.0,49,0.00,,,0.00,Wunderground v.1.15,2013-04-18 00:31:00,
2013-04-17 17:40:00,57.3,38.8,30.45,South,174,1.0,1.0,50,0.00,,,0.00,Wunderground v.1.15,2013-04-18 00:40:00,
2013-04-17 17:46:00,57.3,40.3,30.45,SSW,203,0.0,1.0,53,0.00,,,0.00,Wunderground v.1.15,2013-04-18 00:46:00,
2013-04-17 17:51:00,57.3,39.8,30.45,SSW,198,0.0,0.0,52,0.00,,,0.00,Wunderground v.1.15,2013-04-18 00:51:00,
2013-04-17 18:00:00,57.2,39.7,30.45,SE,143,1.0,2.0,52,0.00,,,0.00,Wunderground v.1.15,2013-04-18 01:00:00,
2013-04-17 18:10:00,57.0,39.0,30.45,SSW,203,1.0,1.0,51,0.00,,,0.00,Wunderground v.1.15,2013-04-18 01:10:00,
2013-04-17 18:20:00,56.7,39.3,30.45,SSW,196,0.0,0.0,52,0.00,,,0.00,Wunderground v.1.15,2013-04-18 01:20:00,
2013-04-17 18:25:00,56.7,40.7,30.45,SSW,202,0.0,0.0,55,0.00,,,0.00,Wunderground v.1.15,2013-04-18 01:25:00,
2013-04-17 18:35:00,56.5,41.0,30.45,SSE,165,1.0,1.0,56,0.00,,,0.00,Wunderground v.1.15,2013-04-18 01:35:00,
2013-04-17 18:45:00,55.9,41.8,30.45,South,189,1.0,1.0,59,0.00,,,0.00,Wunderground v.1.15,2013-04-18 01:45:00,
2013-04-17 18:50:00,55.6,41.5,30.46,West,264,0.0,1.0,59,0.00,,,0.00,Wunderground v.1.15,2013-04-18 01:50:00,
2013-04-17 18:55:00,55.0,42.2,30.46,West,261,1.0,1.0,62,0.00,,,0.00,Wunderground v.1.15,2013-04-18 01:55:00,
2013-04-17 19:10:00,53.6,41.7,30.46,WSW,254,1.0,1.0,64,0.00,,,0.00,Wunderground v.1.15,2013-04-18 02:10:00,
2013-04-17 19:15:00,53.3,41.4,30.46,WSW,246,1.0,7.0,64,0.00,,,0.00,Wunderground v.1.15,2013-04-18 02:15:00,
2013-04-17 19:25:00,52.5,41.5,30.46,West,268,1.0,1.0,66,0.00,,,0.00,Wunderground v.1.15,2013-04-18 02:25:00,
2013-04-17 19:35:00,51.9,40.5,30.46,West,278,0.0,1.0,65,0.00,,,0.00,Wunderground v.1.15,2013-04-18 02:35:00,
2013-04-17 19:45:00,51.3,40.7,30.46,WSW,240,1.0,6.0,67,0.00,,,0.00,Wunderground v.1.15,2013-04-18 02:45:00,
2013-04-17 19:50:00,51.0,40.4,30.47,West,265,1.0,1.0,67,0.00,,,0.00,Wunderground v.1.15,2013-04-18 02:50:00,
2013-04-17 19:55:00,50.7,40.1,30.47,SW,232,1.0,1.0,67,0.00,,,0.00,Wunderground v.1.15,2013-04-18 02:55:00,
2013-04-17 20:11:00,50.1,39.9,30.47,WSW,237,1.0,1.0,68,0.00,,,0.00,Wunderground v.1.15,2013-04-18 03:11:00,
2013-04-17 20:16:00,49.9,40.1,30.47,WNW,294,1.0,1.0,69,0.00,,,0.00,Wunderground v.1.15,2013-04-18 03:16:00,
2013-04-17 20:21:00,49.8,40.0,30.47,SW,222,0.0,2.0,69,0.00,,,0.00,Wunderground v.1.15,2013-04-18 03:21:00,
2013-04-17 20:26:00,49.5,40.1,30.47,SW,222,0.0,2.0,70,0.00,,,0.00,Wunderground v.1.15,2013-04-18 03:26:00,
2013-04-17 20:31:00,49.4,40.0,30.47,WSW,243,0.0,0.0,70,0.00,,,0.00,Wunderground v.1.15,2013-04-18 03:31:00,
2013-04-17 20:36:00,49.2,40.2,30.48,WSW,244,0.0,1.0,71,0.00,,,0.00,Wunderground v.1.15,2013-04-18 03:36:00,
2013-04-17 20:41:00,49.1,40.5,30.48,SW,222,0.0,0.0,72,0.00,,,0.00,Wunderground v.1.15,2013-04-18 03:41:00,
2013-04-17 20:50:00,48.9,40.6,30.48,SW,234,0.0,0.0,73,0.00,,,0.00,Wunderground v.1.15,2013-04-18 03:50:00,
2013-04-17 20:56:00,48.8,40.5,30.48,SW,236,0.0,0.0,73,0.00,,,0.00,Wunderground v.1.15,2013-04-18 03:56:00,
2013-04-17 21:01:00,48.8,40.5,30.48,SW,236,0.0,0.0,73,0.00,,,0.00,Wunderground v.1.15,2013-04-18 04:01:00,
2013-04-17 21:10:00,48.5,40.6,30.48,WSW,237,0.0,0.0,74,0.00,,,0.00,Wunderground v.1.15,2013-04-18 04:10:00,
2013-04-17 21:15:00,48.3,40.7,30.48,WSW,239,0.0,0.0,75,0.00,,,0.00,Wunderground v.1.15,2013-04-18 04:15:00,
2013-04-17 21:20:00,48.2,40.6,30.49,SW,226,1.0,1.0,75,0.00,,,0.00,Wunderground v.1.15,2013-04-18 04:20:00,
2013-04-17 21:25:00,48.2,41.0,30.49,SW,233,1.0,1.0,76,0.00,,,0.00,Wunderground v.1.15,2013-04-18 04:25:00,
2013-04-17 21:35:00,48.0,40.8,30.49,WSW,246,0.0,0.0,76,0.00,,,0.00,Wunderground v.1.15,2013-04-18 04:35:00,
2013-04-17 21:45:00,47.7,40.5,30.49,West,267,1.0,1.0,76,0.00,,,0.00,Wunderground v.1.15,2013-04-18 04:45:00,
2013-04-17 21:51:00,47.6,40.7,30.49,West,267,1.0,1.0,77,0.00,,,0.00,Wunderground v.1.15,2013-04-18 04:51:00,
2013-04-17 22:01:00,47.6,40.7,30.49,West,267,0.0,0.0,77,0.00,,,0.00,Wunderground v.1.15,2013-04-18 05:01:00,
2013-04-17 22:10:00,47.4,40.6,30.49,West,267,0.0,0.0,77,0.00,,,0.00,Wunderground v.1.15,2013-04-18 05:10:00,
2013-04-17 22:15:00,47.4,40.9,30.49,West,267,0.0,0.0,78,0.00,,,0.00,Wunderground v.1.15,2013-04-18 05:15:00,
2013-04-17 22:20:00,47.3,40.5,30.49,West,267,0.0,0.0,77,0.00,,,0.00,Wunderground v.1.15,2013-04-18 05:20:00,
2013-04-17 22:25:00,47.3,40.8,30.49,WSW,257,0.0,2.0,78,0.00,,,0.00,Wunderground v.1.15,2013-04-18 05:25:00,
2013-04-17 22:30:00,47.1,40.6,30.49,WSW,257,0.0,0.0,78,0.00,,,0.00,Wunderground v.1.15,2013-04-18 05:30:00,
2013-04-17 22:35:00,47.1,40.6,30.49,WSW,257,0.0,0.0,78,0.00,,,0.00,Wunderground v.1.15,2013-04-18 05:35:00,
2013-04-17 22:45:00,47.1,40.9,30.49,WSW,257,0.0,0.0,79,0.00,,,0.00,Wunderground v.1.15,2013-04-18 05:45:00,
2013-04-17 22:56:00,47.0,40.8,30.49,WSW,257,0.0,0.0,79,0.00,,,0.00,Wunderground v.1.15,2013-04-18 05:56:00,
2013-04-17 23:10:00,46.8,40.6,30.49,WSW,257,0.0,0.0,79,0.00,,,0.00,Wunderground v.1.15,2013-04-18 06:10:00,
2013-04-17 23:16:00,46.8,40.6,30.49,WSW,257,0.0,0.0,79,0.00,,,0.00,Wunderground v.1.15,2013-04-18 06:16:00,
2013-04-17 23:26:00,46.7,40.5,30.49,WSW,257,0.0,0.0,79,0.00,,,0.00,Wunderground v.1.15,2013-04-18 06:26:00,
2013-04-17 23:31:00,46.7,40.9,30.49,WSW,257,0.0,0.0,80,0.00,,,0.00,Wunderground v.1.15,2013-04-18 06:31:00,
2013-04-17 23:36:00,46.7,40.9,30.49,WSW,257,0.0,0.0,80,0.00,,,0.00,Wunderground v.1.15,2013-04-18 06:36:00,
2013-04-17 23:45:00,46.5,41.0,30.49,WSW,257,0.0,0.0,81,0.00,,,0.00,Wunderground v.1.15,2013-04-18 06:45:00,
2013-04-17 23:50:00,46.5,41.3,30.49,WSW,257,0.0,0.0,82,0.00,,,0.00,Wunderground v.1.15,2013-04-18 06:50:00,
2013-04-17 23:55:00,46.4,41.2,30.49,WSW,257,0.0,0.0,82,0.00,,,0.00,Wunderground v.1.15,2013-04-18 06:55:00,